Watford Cty, North Dakota
Current Conditions -  °F | °C
As of 11:55 AM on Saturday 20 Dec 2014 (Local Time) from KS25 Reporting Station
Scattered Clouds Scattered Clouds  
Wind Chill: 27°   Ceiling: Unl
Heat Index: 36°   Visibility: 10mi
Dew Point: 28°   Wind: 13mph
Humidity: 75%   Direction: 230°SW
Pressure: 29.81"   Gusts: NA
Location:  47.8267°N, 103.206°W
Report Text: KS25 201755Z AUTO 23011KT 10SM SCT070 02/M02 A2981 RMK AO2
Loading
Personal Weather Stations






























Interactive Weather Map New forecast layout! Learn more

10-Day Weather Forecast

Advertisements
Track Severe Weather on mobile